createdAt,value
2022-08-23T00:00:25.565Z,96625.94
2022-08-23T00:02:54.212Z,96628.00
2022-08-23T00:05:22.301Z,96637.94
2022-08-23T00:07:49.812Z,96629.59
2022-08-23T00:10:18.222Z,96635.81
2022-08-23T00:12:48.042Z,96627.47
2022-08-23T00:15:18.434Z,96634.63
2022-08-23T00:17:46.180Z,96631.81
2022-08-23T00:20:18.702Z,96632.16
2022-08-23T00:22:46.239Z,96627.22
2022-08-23T00:25:15.342Z,96622.88
2022-08-23T00:27:42.990Z,96620.91
2022-08-23T00:30:14.533Z,96620.31
2022-08-23T00:32:43.713Z,96617.13
2022-08-23T00:35:13.247Z,96616.78
2022-08-23T00:37:54.625Z,96618.50
2022-08-23T00:40:43.418Z,96622.31
2022-08-23T00:43:32.036Z,96620.72
2022-08-23T00:46:23.908Z,96627.63
2022-08-23T00:48:51.916Z,96618.41
2022-08-23T00:51:28.223Z,96624.16
2022-08-23T00:53:59.184Z,96623.09
2022-08-23T00:56:28.352Z,96624.72
2022-08-23T00:58:57.976Z,96613.56
2022-08-23T01:01:27.360Z,96618.75
2022-08-23T01:04:04.342Z,96614.41
2022-08-23T01:06:35.695Z,96622.44
2022-08-23T01:09:07.110Z,96625.22
2022-08-23T01:11:38.029Z,96622.13
2022-08-23T01:14:10.534Z,96614.31
2022-08-23T01:16:45.556Z,96615.09
2022-08-23T01:19:20.484Z,96611.19
2022-08-23T01:21:53.161Z,96617.16
2022-08-23T01:24:42.578Z,96613.59
2022-08-23T01:27:12.638Z,96616.94
2022-08-23T01:29:41.485Z,96618.66
2022-08-23T01:32:10.009Z,96623.22
2022-08-23T01:34:38.201Z,96623.00
2022-08-23T01:37:13.832Z,96623.75
2022-08-23T01:39:42.723Z,96622.25
2022-08-23T01:42:11.238Z,96624.97
2022-08-23T01:44:39.069Z,96627.50
2022-08-23T01:47:07.735Z,96624.72
2022-08-23T01:49:35.922Z,96628.03
2022-08-23T01:52:03.917Z,96632.16
2022-08-23T01:54:31.449Z,96628.34
2022-08-23T01:57:00.299Z,96641.31
2022-08-23T01:59:27.941Z,96637.06
2022-08-23T02:01:55.636Z,96638.34
2022-08-23T02:04:23.294Z,96634.28
2022-08-23T02:06:50.790Z,96634.97
2022-08-23T02:09:18.294Z,96629.78
2022-08-23T02:11:47.530Z,96640.19
2022-08-23T02:14:19.339Z,96633.75
2022-08-23T02:16:53.725Z,96633.38
2022-08-23T02:19:30.749Z,96641.97
2022-08-23T02:21:58.886Z,96638.31
2022-08-23T02:24:26.843Z,96639.91
2022-08-23T02:27:03.274Z,96637.28
2022-08-23T02:29:32.164Z,96645.19
2022-08-23T02:32:00.725Z,96644.84
2022-08-23T02:34:35.423Z,96648.34
2022-08-23T02:37:03.152Z,96651.19
2022-08-23T02:39:31.206Z,96652.97
2022-08-23T02:41:58.745Z,96656.19
2022-08-23T02:44:26.264Z,96655.59
2022-08-23T02:46:56.073Z,96662.31
2022-08-23T02:49:23.634Z,96661.38
2022-08-23T02:51:51.159Z,96666.28
2022-08-23T02:54:18.685Z,96656.16
2022-08-23T02:56:46.212Z,96656.41
2022-08-23T02:59:13.819Z,96667.16
2022-08-23T03:01:41.427Z,96663.34
2022-08-23T03:04:11.566Z,96667.22
2022-08-23T03:06:39.897Z,96661.56
2022-08-23T03:09:08.747Z,96652.72
2022-08-23T03:11:36.680Z,96653.13
2022-08-23T03:14:05.175Z,96660.69
2022-08-23T03:16:32.687Z,96657.88
2022-08-23T03:19:02.181Z,96655.13
2022-08-23T03:21:31.226Z,96651.50
2022-08-23T03:24:00.173Z,96659.84
2022-08-23T03:26:27.701Z,96650.19
2022-08-23T03:28:55.307Z,96649.59
2022-08-23T03:31:24.369Z,96654.88
2022-08-23T03:33:52.525Z,96657.28
2022-08-23T03:36:20.156Z,96652.16
2022-08-23T03:38:57.443Z,96649.25
2022-08-23T03:41:25.328Z,96651.03
2022-08-23T03:43:52.847Z,96649.78
2022-08-23T03:46:23.935Z,96660.25
2022-08-23T03:48:52.230Z,96659.78
2022-08-23T03:51:19.849Z,96654.19
2022-08-23T03:53:49.384Z,96657.53
2022-08-23T03:56:24.444Z,96659.19
2022-08-23T03:58:52.513Z,96653.19
2022-08-23T04:01:21.294Z,96657.09
2022-08-23T04:03:51.224Z,96659.72
2022-08-23T04:06:19.467Z,96662.16
2022-08-23T04:08:47.243Z,96657.56
2022-08-23T04:11:15.111Z,96655.78
2022-08-23T04:13:44.085Z,96663.09
2022-08-23T04:16:11.839Z,96671.44
2022-08-23T04:18:39.524Z,96666.75
2022-08-23T04:21:10.825Z,96675.66
2022-08-23T04:23:39.554Z,96669.22
2022-08-23T04:26:09.650Z,96675.94
2022-08-23T04:28:38.314Z,96682.22
2022-08-23T04:31:07.290Z,96677.38
2022-08-23T04:33:35.684Z,96676.41
2022-08-23T04:36:08.076Z,96682.75
2022-08-23T04:38:35.646Z,96688.06
2022-08-23T04:41:21.107Z,96682.78
2022-08-23T04:43:49.367Z,96691.66
2022-08-23T04:46:18.287Z,96692.44
2022-08-23T04:48:46.785Z,96690.38
2022-08-23T04:51:14.607Z,96686.72
2022-08-23T04:53:42.904Z,96685.09
2022-08-23T04:56:11.049Z,96684.53
2022-08-23T04:58:39.548Z,96696.06
2022-08-23T05:01:10.653Z,96694.66
2022-08-23T05:03:39.922Z,96692.84
2022-08-23T05:06:07.713Z,96702.94
2022-08-23T05:08:36.167Z,96702.34
2022-08-23T05:11:05.688Z,96708.03
2022-08-23T05:13:34.760Z,96709.84
2022-08-23T05:16:02.614Z,96717.53
2022-08-23T05:18:30.121Z,96714.91
2022-08-23T05:20:59.035Z,96721.56
2022-08-23T05:23:31.839Z,96723.56
2022-08-23T05:26:00.790Z,96725.75
2022-08-23T05:28:30.304Z,96722.72
2022-08-23T05:31:00.128Z,96724.31
2022-08-23T05:33:30.773Z,96727.13
2022-08-23T05:36:00.050Z,96719.38
2022-08-23T05:38:27.818Z,96721.38
2022-08-23T05:40:59.799Z,96723.34
2022-08-23T05:43:27.638Z,96719.28
2022-08-23T05:46:01.671Z,96722.91
2022-08-23T05:48:31.947Z,96717.56
2022-08-23T05:51:09.093Z,96723.56
2022-08-23T05:53:37.514Z,96725.34
2022-08-23T05:56:16.851Z,96729.97
2022-08-23T05:58:45.158Z,96736.03
2022-08-23T06:01:12.953Z,96737.41
2022-08-23T06:03:40.499Z,96743.28
2022-08-23T06:06:10.277Z,96738.00
2022-08-23T06:08:40.105Z,96742.47
2022-08-23T06:11:09.988Z,96743.47
2022-08-23T06:13:41.065Z,96739.13
2022-08-23T06:16:15.053Z,96743.94
2022-08-23T06:18:44.369Z,96749.75
2022-08-23T06:21:15.436Z,96751.47
2022-08-23T06:23:44.007Z,96749.44
2022-08-23T06:26:13.906Z,96759.56
2022-08-23T06:28:50.315Z,96753.81
2022-08-23T06:31:39.710Z,96754.56
2022-08-23T06:34:07.472Z,96758.53
2022-08-23T06:36:37.340Z,96762.47
2022-08-23T06:39:05.839Z,96761.72
2022-08-23T06:41:33.750Z,96759.22
2022-08-23T06:44:01.420Z,96760.97
2022-08-23T06:46:30.537Z,96763.31
2022-08-23T06:48:59.580Z,96764.84
2022-08-23T06:51:30.160Z,96771.69
2022-08-23T06:54:02.993Z,96765.84
2022-08-23T06:56:31.533Z,96772.66
2022-08-23T06:58:59.491Z,96762.38
2022-08-23T07:01:47.983Z,96766.88
2022-08-23T07:04:19.895Z,96777.22
2022-08-23T07:06:47.753Z,96778.03
2022-08-23T07:09:18.464Z,96775.44
2022-08-23T07:11:46.234Z,96778.88
2022-08-23T07:14:17.667Z,96776.28
2022-08-23T07:16:48.385Z,96782.34
2022-08-23T07:19:16.259Z,96785.22
2022-08-23T07:21:44.581Z,96790.28
2022-08-23T07:24:18.695Z,96786.59
2022-08-23T07:26:48.391Z,96788.16
2022-08-23T07:29:17.454Z,96791.13
2022-08-23T07:31:47.589Z,96793.31
2022-08-23T07:34:15.897Z,96797.03
2022-08-23T07:36:45.475Z,96793.66
2022-08-23T07:39:14.598Z,96790.69
2022-08-23T07:41:44.703Z,96790.13
2022-08-23T07:44:13.160Z,96800.19
2022-08-23T07:46:47.673Z,96804.75
2022-08-23T07:49:16.311Z,96801.53
2022-08-23T07:51:47.459Z,96794.09
2022-08-23T07:54:15.543Z,96798.09
2022-08-23T07:56:46.551Z,96795.69
2022-08-23T07:59:23.379Z,96800.75
2022-08-23T08:01:57.311Z,96803.06
2022-08-23T08:04:24.973Z,96800.09
2022-08-23T08:07:10.885Z,96801.38
2022-08-23T08:09:42.578Z,96801.03
2022-08-23T08:12:13.928Z,96795.38
2022-08-23T08:17:33.251Z,96803.63
2022-08-23T08:28:26.814Z,96802.47
2022-08-23T08:31:29.490Z,96806.84
2022-08-23T08:34:04.185Z,96808.50
2022-08-23T08:37:00.136Z,96814.09
2022-08-23T08:39:35.282Z,96816.56
2022-08-23T08:42:35.927Z,96812.84
2022-08-23T08:45:12.568Z,96820.84
2022-08-23T08:47:48.940Z,96824.56
2022-08-23T10:17:42.059Z,96809.94
2022-08-23T10:20:22.128Z,96816.09
2022-08-23T10:22:56.823Z,96805.59
2022-08-23T10:25:34.254Z,96810.88
2022-08-23T11:31:41.988Z,96777.91
2022-08-23T14:13:36.732Z,96723.06
2022-08-23T14:21:54.119Z,96706.75
2022-08-23T14:24:50.195Z,96721.25
2022-08-23T14:27:17.783Z,96714.66
2022-08-23T14:29:46.635Z,96714.81
2022-08-23T14:32:14.855Z,96703.69
2022-08-23T14:34:42.667Z,96698.31
2022-08-23T14:47:09.692Z,96703.09
2022-08-23T14:52:25.544Z,96698.38
2022-08-23T14:54:53.149Z,96693.59
2022-08-23T14:57:20.823Z,96704.63
2022-08-23T14:59:48.542Z,96691.50
2022-08-23T15:02:22.188Z,96698.47
2022-08-23T15:04:49.798Z,96702.44
2022-08-23T15:07:19.165Z,96697.38
2022-08-23T15:09:47.544Z,96699.53
2022-08-23T15:15:02.760Z,96703.84
2022-08-23T15:17:31.978Z,96696.06
2022-08-23T15:20:00.043Z,96709.78
2022-08-23T15:22:27.634Z,96702.81
2022-08-23T15:24:55.259Z,96703.94
2022-08-23T15:27:24.947Z,96701.53
2022-08-23T15:29:52.553Z,96699.41
2022-08-23T15:32:22.721Z,96694.34
2022-08-23T15:34:52.124Z,96698.44
2022-08-23T15:37:22.176Z,96696.13
2022-08-23T15:39:50.725Z,96689.22
2022-08-23T15:42:20.479Z,96695.16
2022-08-23T15:44:48.595Z,96695.72
2022-08-23T15:47:22.155Z,96690.13
2022-08-23T15:49:50.258Z,96686.44
2022-08-23T15:52:20.019Z,96688.13
2022-08-23T15:54:48.580Z,96688.13
2022-08-23T15:57:18.173Z,96694.84
2022-08-23T15:59:46.347Z,96688.97
2022-08-23T16:02:13.977Z,96691.13
2022-08-23T16:04:41.853Z,96689.84
2022-08-23T16:07:14.326Z,96695.50
2022-08-23T16:09:43.556Z,96693.38
2022-08-23T16:12:11.164Z,96688.63
2022-08-23T16:14:38.812Z,96692.69
2022-08-23T16:17:06.680Z,96685.19
2022-08-23T16:19:34.479Z,96684.69
2022-08-23T16:22:02.390Z,96688.75
2022-08-23T16:24:30.036Z,96687.16
2022-08-23T16:26:59.035Z,96685.56
2022-08-23T16:29:31.815Z,96685.03
2022-08-23T16:31:59.381Z,96683.75
2022-08-23T16:34:27.761Z,96685.13
2022-08-23T16:36:58.707Z,96689.19
2022-08-23T16:39:27.059Z,96679.31
2022-08-23T16:41:55.505Z,96686.03
2022-08-23T16:44:24.418Z,96682.03
2022-08-23T16:46:52.921Z,96685.78
2022-08-23T16:49:20.646Z,96685.28
2022-08-23T16:51:48.891Z,96692.81
2022-08-23T16:54:19.054Z,96688.50
2022-08-23T16:56:46.683Z,96693.88
2022-08-23T16:59:14.586Z,96694.19
2022-08-23T17:01:50.576Z,96699.81
2022-08-23T17:04:19.512Z,96699.28
2022-08-23T17:06:47.788Z,96700.38
2022-08-23T17:09:15.334Z,96700.94
2022-08-23T17:11:44.656Z,96700.22
2022-08-23T17:14:12.638Z,96695.22
2022-08-23T17:16:41.098Z,96694.44
2022-08-23T17:19:10.092Z,96696.38
2022-08-23T17:21:38.230Z,96704.47
2022-08-23T17:24:06.325Z,96704.22
2022-08-23T17:26:33.992Z,96710.16
2022-08-23T17:29:01.925Z,96708.84
2022-08-23T17:31:29.533Z,96711.00
2022-08-23T17:34:02.932Z,96708.91
2022-08-23T17:36:36.142Z,96712.66
2022-08-23T17:39:09.473Z,96723.63
2022-08-23T17:41:38.566Z,96719.63
2022-08-23T17:44:08.708Z,96720.72
2022-08-23T17:46:36.831Z,96725.53
2022-08-23T17:49:05.868Z,96732.25
2022-08-23T17:51:36.822Z,96734.66
2022-08-23T17:54:04.663Z,96734.16
2022-08-23T17:56:32.324Z,96738.47
2022-08-23T17:59:00.211Z,96742.78
2022-08-23T18:01:28.030Z,96743.88
2022-08-23T18:03:55.823Z,96749.81
2022-08-23T18:06:23.878Z,96751.72
2022-08-23T18:08:52.921Z,96749.91
2022-08-23T18:11:20.579Z,96747.81
2022-08-23T18:13:48.666Z,96754.56
2022-08-23T18:16:16.413Z,96757.56
2022-08-23T18:18:44.134Z,96766.63
2022-08-23T18:21:13.140Z,96768.28
2022-08-23T18:23:41.242Z,96769.38
2022-08-23T18:26:33.674Z,96781.16
2022-08-23T18:29:01.063Z,96781.19
2022-08-23T18:31:28.935Z,96777.50
2022-08-23T18:34:00.304Z,96783.63
2022-08-23T18:36:29.326Z,96790.63
2022-08-23T18:38:57.823Z,96790.63
2022-08-23T18:41:26.803Z,96790.38
2022-08-23T18:43:54.489Z,96798.13
2022-08-23T18:46:22.161Z,96798.66
2022-08-23T18:48:53.414Z,96806.94
2022-08-23T18:51:22.170Z,96810.44
2022-08-23T18:53:49.931Z,96810.13
2022-08-23T18:56:17.542Z,96808.28
2022-08-23T18:58:47.834Z,96813.88
2022-08-23T19:01:25.423Z,96813.34
2022-08-23T19:03:54.237Z,96819.47
2022-08-23T19:06:22.178Z,96825.63
2022-08-23T19:08:49.822Z,96825.34
2022-08-23T19:11:18.188Z,96826.16
2022-08-23T19:13:48.649Z,96839.78
2022-08-23T19:16:16.820Z,96834.19
2022-08-23T19:18:47.111Z,96835.78
2022-08-23T19:21:16.258Z,96841.09
2022-08-23T19:23:43.803Z,96844.88
2022-08-23T19:26:12.151Z,96839.50
2022-08-23T19:28:40.230Z,96844.84
2022-08-23T19:31:13.032Z,96854.69
2022-08-23T19:33:47.828Z,96852.00
2022-08-23T20:01:09.204Z,96873.84
2022-08-23T20:11:44.005Z,96880.91
2022-08-23T20:14:11.597Z,96877.41
2022-08-23T20:16:40.834Z,96877.13
2022-08-23T20:19:09.718Z,96882.66
2022-08-23T20:21:38.068Z,96883.69
2022-08-23T20:24:06.053Z,96876.75
2022-08-23T20:26:35.973Z,96878.25
2022-08-23T20:29:06.247Z,96880.81
2022-08-23T20:31:36.974Z,96891.69
2022-08-23T20:34:05.902Z,96892.44
2022-08-23T20:36:33.567Z,96884.41
2022-08-23T20:39:02.709Z,96894.50
2022-08-23T20:41:32.738Z,96887.78
2022-08-23T20:44:02.135Z,96885.88
2022-08-23T20:46:31.206Z,96884.00
2022-08-23T20:48:58.776Z,96890.03
2022-08-23T20:51:26.927Z,96888.97
2022-08-23T20:53:56.003Z,96886.19
2022-08-23T20:56:23.945Z,96885.59
2022-08-23T20:58:52.228Z,96884.41
2022-08-23T21:01:19.823Z,96875.00
2022-08-23T21:03:49.057Z,96880.00
2022-08-23T21:06:20.060Z,96889.28
2022-08-23T21:08:49.707Z,96899.03
2022-08-23T21:11:21.598Z,96890.47
2022-08-23T21:13:49.190Z,96887.19
2022-08-23T21:16:18.079Z,96882.88
2022-08-23T21:18:45.995Z,96900.34
2022-08-23T21:21:21.000Z,96890.69
2022-08-23T21:23:49.737Z,96887.44
2022-08-23T21:26:17.317Z,96882.84
2022-08-23T21:28:44.828Z,96880.38
2022-08-23T21:31:14.428Z,96885.63
2022-08-23T21:33:42.942Z,96888.47
2022-08-23T21:36:11.174Z,96895.53
2022-08-23T21:38:40.762Z,96887.94
2022-08-23T21:41:10.862Z,96891.56
2022-08-23T21:43:39.413Z,96893.13
2022-08-23T21:46:07.529Z,96897.31
2022-08-23T21:48:35.513Z,96891.09
2022-08-23T21:51:03.230Z,96886.28
2022-08-23T21:53:31.568Z,96889.97
2022-08-23T21:56:00.468Z,96883.31
2022-08-23T21:58:28.030Z,96881.16
2022-08-23T22:00:55.519Z,96879.53
2022-08-23T22:03:23.020Z,96880.59
2022-08-23T22:05:50.645Z,96878.16
2022-08-23T22:08:18.185Z,96875.19
2022-08-23T22:10:56.685Z,96881.53
2022-08-23T22:13:28.627Z,96886.84
2022-08-23T22:15:56.425Z,96876.69
2022-08-23T22:18:24.153Z,96870.88
2022-08-23T22:20:51.658Z,96878.31
2022-08-23T22:23:19.168Z,96875.13
2022-08-23T22:25:47.308Z,96861.53
2022-08-23T22:28:15.005Z,96871.56
2022-08-23T22:30:44.130Z,96870.75
2022-08-23T22:33:12.968Z,96871.00
2022-08-23T22:35:40.504Z,96860.16
2022-08-23T22:38:14.230Z,96866.59
2022-08-23T22:40:48.755Z,96866.09
2022-08-23T22:43:16.943Z,96861.53
2022-08-23T22:45:54.461Z,96860.31
2022-08-23T22:48:22.833Z,96869.22
2022-08-23T22:50:50.671Z,96855.09
2022-08-23T22:53:19.750Z,96867.69
2022-08-23T22:55:51.646Z,96863.34
2022-08-23T22:58:19.299Z,96867.50
2022-08-23T23:00:46.895Z,96864.84
2022-08-23T23:03:16.196Z,96866.22
2022-08-23T23:05:43.974Z,96864.94
2022-08-23T23:08:29.514Z,96872.97
2022-08-23T23:10:58.338Z,96870.91
2022-08-23T23:13:27.104Z,96864.50
2022-08-23T23:15:55.313Z,96868.84
2022-08-23T23:18:26.066Z,96867.50
2022-08-23T23:20:57.767Z,96863.00
2022-08-23T23:23:25.603Z,96865.41
2022-08-23T23:25:53.439Z,96864.94
2022-08-23T23:28:22.730Z,96871.38
2022-08-23T23:30:53.112Z,96867.69
2022-08-23T23:33:22.344Z,96865.72
2022-08-23T23:35:52.603Z,96874.06
2022-08-23T23:38:20.367Z,96869.38
2022-08-23T23:40:47.928Z,96871.94
2022-08-23T23:43:15.454Z,96875.97
2022-08-23T23:45:43.137Z,96868.59
2022-08-23T23:48:12.658Z,96874.13
2022-08-23T23:50:45.426Z,96870.31
2022-08-23T23:53:16.150Z,96874.41
2022-08-23T23:55:44.460Z,96869.97
2022-08-23T23:58:11.979Z,96871.38
